Latest Coastal Weather Observations for Maatsuyker Island

IDT60701

Issued at 8:45 pm EDT Thursday 27 November 2014 (issued every 10 minutes, with the page automatically refreshed every 10 minutes)

About coastal observations | Map of coastal stations | Coastal observations for TAS | Marine services | Other Formats
Station Details ID: 094041 Name: MAATSUYKER ISLAND LIGHTHOUSE Lat: -43.66 Lon: 146.27 Height: 146.5 m
Data from the previous 72 hours. | See also: Recent months at Maatsuyker Island
Date/Time
EDT
Temp

°C
Wind Pressure Rain
since 9am
mm
Weather Cloud Vis
km
Sea
Height
m
Swell
Dir
 
Speed
knots
Gust
knots
hPa Trend Height
m
Period
s
Dir
27/08:30pm 9.8 WNW 15 19 1024.5 - 0.0 - - - - - - -
27/08:00pm 9.9 WNW 12 14 1024.6 - 0.0 - - - - - - -
27/07:30pm 10.1 WNW 13 15 1024.6 - 0.0 - - - - - - -
27/07:00pm 10.1 WNW 13 18 1024.6 - 0.0 - - - - - - -
27/06:30pm 10.6 WNW 14 17 1024.6 - 0.0 - - - - - - -
27/06:00pm 11.0 WNW 17 21 1024.7 - 0.0 - - - - - - -
27/05:30pm 11.5 WNW 18 20 1024.6 - 0.0 - - - - - - -
27/05:00pm 10.9 WNW 15 18 1024.9 - 0.0 - - - - - - -
27/04:30pm 11.0 W 13 17 1025.2 - 0.0 - - - - - - -
27/04:00pm 11.6 WNW 17 21 1025.0 - 0.0 - - - - - - -
27/03:30pm 9.6 WNW 17 21 1025.2 - 0.0 - - - - - - -
27/03:00pm 11.5 W 15 20 1025.3 R 0.0 Haze Cloudy 0 <0.5 2.5 11 SW
27/02:30pm 10.8 WNW 21 26 1025.3 - 0.0 - - - - - - -
27/02:00pm 10.6 WNW 18 23 1025.4 - 0.0 - - - - - - -
27/01:30pm 10.5 WNW 18 22 1025.3 - 0.0 - - - - - - -
27/01:00pm 10.0 NW 19 24 1025.0 - 0.0 - - - - - - -
27/12:30pm 10.6 NW 23 26 1024.7 - 0.0 - - - - - - -
27/12:00pm 10.8 WNW 22 27 1025.2 - 0.0 - - - - - - -
27/11:30am 11.1 WNW 21 25 1024.8 - 0.0 - - - - - - -
27/11:00am 10.4 WNW 22 26 1024.7 - 0.0 - - - - - - -
27/10:30am 10.7 WNW 21 24 1024.5 - 0.0 - - - - - - -
27/10:00am 10.2 NW 28 32 1024.4 - 0.0 - - - - - - -
27/09:30am 9.7 WNW 24 32 1024.6 - 0.0 - - - - - - -
27/09:00am 9.6 W 18 29 1024.7 R 0.6 Showers Cloudy 1 <0.5 2.5 11 SW
27/08:30am 9.6 W 18 23 1024.4 - 0.6 - - - - - - -
27/08:00am 9.9 WNW 22 28 1023.6 - 0.6 - - - - - - -
27/07:30am 9.4 WNW 23 28 1023.7 - 0.6 - - - - - - -
27/07:00am 9.6 WNW 18 23 1023.6 - 0.6 - - - - - - -
27/06:30am 9.4 W 15 20 1023.2 - 0.6 - - - - - - -
27/06:00am 9.5 W 12 21 1023.0 R 0.6 Haze Mostly cloudy 10 <0.5 2.5 11 SW
27/05:30am 9.4 W 17 22 1022.4 - 0.6 - - - - - - -
27/05:00am 9.2 W 19 25 1022.1 - 0.6 - - - - - - -
27/04:30am 9.7 WNW 20 26 1021.7 - 0.6 - - - - - - -
27/04:00am 9.5 W 17 23 1021.6 - 0.6 - - - - - - -
27/03:30am 9.2 W 16 23 1021.7 - 0.6 - - - - - - -
27/03:00am 9.7 WNW 21 27 1021.6 - 0.6 - - - - - - -
27/02:30am 9.6 W 19 25 1021.6 - 0.6 - - - - - - -
27/02:00am 9.5 W 18 23 1021.6 - 0.6 - - - - - - -
27/01:30am 9.5 WNW 22 27 1021.6 - 0.6 - - - - - - -
27/01:00am 9.4 WNW 20 23 1021.8 - 0.6 - - - - - - -
27/12:30am 9.5 WNW 19 23 1021.8 - 0.6 - - - - - - -
27/12:00am 9.5 W 18 25 1022.3 - 0.6 - - - - - - -
 
Date/Time
EDT
Temp

°C
Wind Pressure Rain
since 9am
mm
Weather Cloud Vis
km
Sea
Height
m
Swell
Dir
 
Speed
knots
Gust
knots
hPa Trend Height
m
Period
s
Dir
26/11:30pm 9.5 W 21 28 1022.0 - 0.6 - - - - - - -
26/11:00pm 9.4 W 18 26 1022.1 - 0.6 - - - - - - -
26/10:30pm 9.8 WNW 22 28 1021.9 - 0.6 - - - - - - -
26/10:00pm 9.7 W 22 29 1021.8 - 0.6 - - - - - - -
26/09:30pm 9.8 W 23 28 1021.3 - 0.6 - - - - - - -
26/09:00pm 10.2 WNW 25 31 1021.0 - 0.6 - - - - - - -
26/08:30pm 10.3 WNW 25 29 1020.4 - 0.6 - - - - - - -
26/08:00pm 10.1 WNW 25 31 1020.0 - 0.6 - - - - - - -
26/07:30pm 9.8 WNW 24 29 1020.0 - 0.6 - - - - - - -
26/07:00pm 10.3 WNW 23 29 1019.5 - 0.6 - - - - - - -
26/06:30pm 10.3 WNW 27 31 1018.7 - 0.6 - - - - - - -
26/06:00pm 10.6 WNW 25 31 1018.7 - 0.6 - - - - - - -
26/05:30pm 10.8 WNW 26 29 1018.8 - 0.6 - - - - - - -
26/05:00pm 10.7 WNW 24 29 1018.3 - 0.6 - - - - - - -
26/04:30pm 10.1 W 19 26 1018.5 - 0.6 - - - - - - -
26/04:00pm 11.3 WNW 23 29 1018.1 - 0.6 - - - - - - -
26/03:30pm 11.1 WNW 23 27 1018.0 - 0.6 - - - - - - -
26/03:00pm 11.3 SW 17 25 1017.9 R 0.6 Recent precip. Partly cloudy 1 1 2.5 12 SW
26/02:30pm 10.5 WNW 22 29 1017.6 - 0.6 - - - - - - -
26/02:00pm 10.0 WNW 21 25 1017.3 - 0.6 - - - - - - -
26/01:32pm 9.9 W 19 29 1017.2 - 0.4 - - - - - - -
26/01:30pm 10.2 W 20 29 1017.2 - 0.4 - - - - - - -
26/01:23pm 10.8 W 19 29 1017.2 - 0.4 - - - - - - -
26/01:00pm 9.6 W 18 26 1017.0 - 0.4 - - - - - - -
26/12:30pm 9.3 W 19 30 1016.8 - 0.4 - - - - - - -
26/12:26pm 10.8 W 18 29 1016.6 - 0.4 - - - - - - -
26/12:00pm 10.8 W 21 26 1016.4 - 0.4 - - - - - - -
26/11:30am 10.5 W 19 26 1015.8 - 0.4 - - - - - - -
26/11:00am 10.6 WNW 21 26 1015.5 - 0.4 - - - - - - -
26/10:30am 10.0 WNW 23 29 1015.1 - 0.4 - - - - - - -
26/10:00am 8.3 W 22 35 1014.8 - 0.2 - - - - - - -
26/09:53am 9.4 WNW 24 35 1014.7 - 0.2 - - - - - - -
26/09:30am 9.3 WNW 21 25 1014.4 - 0.2 - - - - - - -
26/09:00am 8.8 W 17 35 1014.2 R 3.0 Rain Mostly cloudy 6 1 4.0 13 SW
26/08:34am 8.5 W 23 33 1013.6 - 3.0 - - - - - - -
26/08:30am 8.5 WNW 26 34 1013.7 - 3.0 - - - - - - -
26/08:11am 8.6 W 29 39 1013.3 - 2.4 - - - - - - -
26/08:00am 9.2 NW 40 45 1011.8 - 2.4 - - - - - - -
26/07:30am 9.3 NW 39 45 1011.1 - 2.4 - - - - - - -
26/07:16am 8.3 WNW 40 50 1011.8 - 2.0 - - - - - - -
26/07:00am 9.7 NW 41 45 1010.6 - 1.8 - - - - - - -
26/06:30am 9.2 NW 43 51 1010.2 - 1.8 - - - - - - -
26/06:22am 10.2 NW 41 51 1009.8 - 1.8 - - - - - - -
26/06:00am 10.0 WNW 34 45 1010.6 R 1.8 Showers Mostly cloudy 5 2 3.5 13 SW
26/05:30am 10.3 NW 41 49 1009.1 - 1.8 - - - - - - -
26/05:00am 9.8 NW 40 45 1009.1 - 1.8 - - - - - - -
26/04:30am 9.5 NW 39 45 1008.9 - 1.8 - - - - - - -
26/04:00am 9.8 WNW 39 45 1008.9 - 1.8 - - - - - - -
26/03:30am 10.1 NW 40 46 1008.5 - 1.8 - - - - - - -
26/03:00am 10.1 NW 39 43 1008.6 - 1.8 - - - - - - -
26/02:30am 9.7 NW 41 46 1008.5 - 1.8 - - - - - - -
26/02:00am 9.9 WNW 39 44 1008.4 - 1.8 - - - - - - -
26/01:30am 10.0 WNW 43 51 1008.1 - 1.8 - - - - - - -
26/01:00am 10.1 NW 43 48 1007.6 - 1.8 - - - - - - -
26/12:30am 10.0 WNW 39 43 1007.8 - 1.8 - - - - - - -
26/12:14am 10.0 NW 40 48 1007.5 - 1.8 - - - - - - -
26/12:00am 10.5 NW 51 63 1007.2 - 1.8 - - - - - - -
 
Date/Time
EDT
Temp

°C
Wind Pressure Rain
since 9am
mm
Weather Cloud Vis
km
Sea
Height
m
Swell
Dir
 
Speed
knots
Gust
knots
hPa Trend Height
m
Period
s
Dir
25/11:55pm 10.6 NNW 53 63 1005.0 - 1.8 - - - - - - -
25/11:52pm 10.5 NNW 55 63 1004.5 - 1.8 - - - - - - -
25/11:30pm 10.5 NNW 42 52 1005.8 - 0.6 - - - - - - -
25/11:13pm 10.8 NNW 42 52 1006.4 - 0.2 - - - - - - -
25/11:00pm 10.5 NNW 41 47 1006.4 - 0.2 - - - - - - -
25/10:33pm 10.8 NNW 40 50 1006.4 - 0.2 - - - - - - -
25/10:30pm 11.0 NNW 41 50 1006.6 - 0.2 - - - - - - -
25/10:20pm 10.8 NNW 42 52 1006.6 - 0.2 - - - - - - -
25/10:00pm 11.0 NNW 39 46 1007.3 - 0.2 - - - - - - -
25/09:32pm 10.7 NNW 36 46 1007.6 - 0.2 - - - - - - -
25/09:30pm 10.7 NNW 36 43 1007.7 - 0.2 - - - - - - -
25/09:00pm 10.1 NW 42 47 1007.6 - 0.2 - - - - - - -
25/08:30pm 10.2 NW 41 48 1007.6 - 0.2 - - - - - - -
25/08:00pm 10.5 NW 45 51 1007.7 - 0.2 - - - - - - -
25/07:30pm 10.5 NW 41 46 1007.9 - 0.2 - - - - - - -
25/07:00pm 10.6 NW 41 48 1007.6 - 0.2 - - - - - - -
25/06:30pm 10.4 NW 44 50 1007.9 - 0.2 - - - - - - -
25/06:08pm 10.0 NW 40 50 1008.0 - 0.2 - - - - - - -
25/06:00pm 9.7 NW 42 50 1007.3 - 0.2 - - - - - - -
25/05:30pm 11.1 NW 45 49 1007.5 - 0.2 - - - - - - -
25/05:00pm 11.0 NW 44 49 1007.8 - 0.2 - - - - - - -
25/04:30pm 9.8 NW 46 54 1007.7 - 0.2 - - - - - - -
25/04:21pm 10.6 NW 44 54 1007.6 - 0.2 - - - - - - -
25/04:00pm 10.7 NW 43 50 1007.5 - 0.2 - - - - - - -
25/03:30pm 10.4 NW 41 48 1006.9 - 0.2 - - - - - - -
25/03:17pm 9.9 NW 41 51 1007.4 - 0.2 - - - - - - -
25/03:00pm 10.7 W 38 50 1007.0 R 0.2 Showers Cloudy 10 2 3.5 13 SW
25/02:30pm 10.7 NW 40 44 1006.9 - 0.2 - - - - - - -
25/02:00pm 10.5 NW 41 45 1007.0 - 0.2 - - - - - - -
25/01:45pm 10.6 NW 39 49 1007.1 - 0.2 - - - - - - -
25/01:30pm 9.3 WNW 41 48 1007.1 - 0.2 - - - - - - -
25/01:00pm 11.3 NW 39 44 1006.5 - 0.2 - - - - - - -
25/12:30pm 11.4 NW 41 48 1006.6 - 0.2 - - - - - - -
25/12:25pm 11.3 NW 38 48 1006.4 - 0.2 - - - - - - -
25/12:00pm 10.9 NW 39 45 1006.9 - 0.2 - - - - - - -
25/11:30am 10.8 NW 40 45 1006.3 - 0.2 - - - - - - -
25/11:00am 10.5 NW 34 39 1006.4 - 0.0 - - - - - - -
25/10:30am 10.8 NW 36 40 1006.3 - 0.0 - - - - - - -
25/10:00am 10.3 WNW 38 44 1006.6 - 0.0 - - - - - - -
25/09:30am 10.9 NW 37 42 1006.0 - 0.0 - - - - - - -
25/09:00am 10.4 WNW 32 43 1005.7 R 3.2 Distant precip. Mostly cloudy 10 2 4.0 13 SW
25/08:30am 10.7 NW 41 45 1004.9 - 3.2 - - - - - - -
25/08:00am 10.3 NW 39 43 1004.3 - 3.2 - - - - - - -
25/07:30am 10.0 NW 45 49 1003.4 - 3.2 - - - - - - -
25/07:00am 10.2 WNW 43 48 1002.8 - 3.2 - - - - - - -
25/06:30am 9.7 NW 46 53 1002.5 - 3.2 - - - - - - -
25/06:00am 9.9 W 40 49 1001.7 R 3.2 Distant precip. Cloudy 6 2 4.0 12 SW
25/05:39am 10.1 NW 45 55 1001.3 - 3.2 - - - - - - -
25/05:30am 10.2 NW 46 53 1000.5 - 3.2 - - - - - - -
25/05:00am 10.5 NW 49 55 999.7 - 3.2 - - - - - - -
25/04:30am 10.5 NW 49 57 999.5 - 3.2 - - - - - - -
25/04:01am 10.6 NW 50 60 998.9 - 3.2 - - - - - - -
25/04:00am 10.7 NW 51 60 998.7 - 3.2 - - - - - - -
25/03:33am 10.5 NW 50 60 999.2 - 3.2 - - - - - - -
25/03:30am 10.4 NW 52 60 998.8 - 3.2 - - - - - - -
25/03:01am 10.0 NW 52 62 998.6 - 3.2 - - - - - - -
25/03:00am 10.0 NW 53 62 998.4 - 3.2 - - - - - - -
25/02:43am 10.3 NW 46 59 997.4 - 3.0 - - - - - - -
25/02:30am 10.3 NW 48 57 998.0 - 3.0 - - - - - - -
25/02:02am 10.3 NW 50 60 998.1 - 3.0 - - - - - - -
25/02:00am 10.5 NW 51 60 998.1 - 3.0 - - - - - - -
25/01:30am 10.3 NW 48 55 998.0 - 2.8 - - - - - - -
25/01:04am 10.4 NW 46 56 997.2 - 2.6 - - - - - - -
25/01:00am 10.2 NNW 45 53 998.3 - 2.6 - - - - - - -
25/12:30am 10.9 NNW 43 53 997.9 - 2.0 - - - - - - -
25/12:04am 10.9 NNW 39 51 998.4 - 2.0 - - - - - - -
25/12:00am 11.1 NNW 39 48 998.8 - 2.0 - - - - - - -
 
Date/Time
EDT
Temp

°C
Wind Pressure Rain
since 9am
mm
Weather Cloud Vis
km
Sea
Height
m
Swell
Dir
 
Speed
knots
Gust
knots
hPa Trend Height
m
Period
s
Dir
24/11:30pm 11.4 NNW 35 45 999.1 - 2.0 - - - - - - -
24/11:00pm 11.3 NNW 34 44 999.4 - 2.0 - - - - - - -
24/10:46pm 11.0 NNW 35 45 999.6 - 2.0 - - - - - - -
24/10:30pm 11.3 NNW 37 45 1000.0 - 2.0 - - - - - - -
24/10:08pm 11.4 NNW 33 43 1000.1 - 2.0 - - - - - - -
24/10:00pm 11.3 NNW 33 38 1000.6 - 2.0 - - - - - - -
24/09:30pm 11.4 NNW 31 38 1000.5 - 2.0 - - - - - - -
24/09:00pm 11.2 NNW 33 41 1000.7 - 2.0 - - - - - - -

Other Formats:

Comma delimited format used in spreadsheet applications
http://www.bom.gov.au/fwo/IDT60701/IDT60701.94962.axf

JavaScript Object Notation format (JSON) in row-major order
http://www.bom.gov.au/fwo/IDT60701/IDT60701.94962.json